Terminal Aerodrome Forecast
Issued by NWS

Home | Current Version | Previous Version | Graphics & Text | Print | Product List | Glossary On
Versions: 1 2 3 4 5 6 7 8 9 10 11 12 13 14 15 16 17
269
FTUS43 KMPX 211514 AAA
TAFRNH
TAF AMD
KRNH 211514Z 2115/2212 17006KT 4SM -DZ BR OVC010
     FM211600 24009KT 5SM -RA BR OVC010
      TEMPO 2116/2119 2SM RA BR OVC007
     FM212000 28012G19KT P6SM SCT008 OVC012
     FM220100 27009KT P6SM OVC016
     FM221000 25005KT P6SM OVC025=

USA.gov is the U.S. government's official web portal to all federal, state and local government web resources and services.